createdAt,value
2023-05-23T00:00:10.313Z,96547.22
2023-05-23T00:02:41.815Z,96544.06
2023-05-23T00:05:10.335Z,96550.22
2023-05-23T00:07:38.423Z,96544.00
2023-05-23T00:10:07.142Z,96544.66
2023-05-23T00:12:37.726Z,96562.56
2023-05-23T00:15:08.783Z,96549.66
2023-05-23T00:17:38.275Z,96556.13
2023-05-23T00:20:09.671Z,96554.53
2023-05-23T00:22:42.271Z,96544.00
2023-05-23T00:25:11.109Z,96556.75
2023-05-23T00:27:40.595Z,96549.59
2023-05-23T00:30:09.551Z,96553.00
2023-05-23T00:32:38.101Z,96546.78
2023-05-23T00:35:07.045Z,96553.34
2023-05-23T00:37:35.835Z,96543.16
2023-05-23T00:40:03.916Z,96545.88
2023-05-23T00:42:33.082Z,96547.91
2023-05-23T00:45:02.500Z,96553.25
2023-05-23T00:47:30.759Z,96554.63
2023-05-23T00:49:58.900Z,96569.06
2023-05-23T00:52:27.103Z,96570.50
2023-05-23T00:54:55.213Z,96565.81
2023-05-23T00:57:23.709Z,96557.41
2023-05-23T00:59:51.786Z,96561.16
2023-05-23T01:02:22.289Z,96566.69
2023-05-23T01:04:54.306Z,96563.19
2023-05-23T01:07:22.421Z,96560.38
2023-05-23T01:09:51.089Z,96573.03
2023-05-23T01:12:21.989Z,96574.00
2023-05-23T01:14:53.401Z,96575.06
2023-05-23T01:17:37.137Z,96578.78
2023-05-23T01:20:10.371Z,96583.34
2023-05-23T01:22:52.216Z,96576.50
2023-05-23T01:25:29.970Z,96575.53
2023-05-23T01:28:02.429Z,96583.00
2023-05-23T01:30:33.855Z,96579.44
2023-05-23T01:33:02.586Z,96582.28
2023-05-23T01:35:31.500Z,96582.41
2023-05-23T01:37:59.592Z,96584.44
2023-05-23T01:40:27.958Z,96589.78
2023-05-23T01:42:57.644Z,96584.84
2023-05-23T01:45:28.400Z,96593.09
2023-05-23T01:47:57.147Z,96586.94
2023-05-23T01:50:27.133Z,96592.81
2023-05-23T01:52:56.142Z,96593.97
2023-05-23T01:55:24.814Z,96597.03
2023-05-23T01:57:53.229Z,96584.59
2023-05-23T02:00:21.707Z,96578.38
2023-05-23T02:02:51.272Z,96593.56
2023-05-23T02:05:19.481Z,96592.38
2023-05-23T02:07:47.590Z,96597.13
2023-05-23T02:10:18.648Z,96606.50
2023-05-23T02:12:46.775Z,96601.84
2023-05-23T02:15:14.845Z,96604.94
2023-05-23T02:17:43.106Z,96601.44
2023-05-23T02:20:14.486Z,96600.97
2023-05-23T02:22:42.572Z,96602.47
2023-05-23T02:25:10.872Z,96597.94
2023-05-23T02:27:40.746Z,96599.50
2023-05-23T02:30:09.931Z,96602.22
2023-05-23T02:32:38.385Z,96597.59
2023-05-23T02:35:07.327Z,96595.66
2023-05-23T02:37:36.756Z,96594.53
2023-05-23T02:40:07.632Z,96598.38
2023-05-23T02:42:35.779Z,96602.94
2023-05-23T02:45:03.831Z,96604.53
2023-05-23T02:47:32.227Z,96603.75
2023-05-23T02:50:00.651Z,96604.09
2023-05-23T02:52:29.486Z,96598.22
2023-05-23T02:54:58.855Z,96603.22
2023-05-23T02:57:27.625Z,96606.75
2023-05-23T02:59:55.841Z,96606.63
2023-05-23T03:02:23.963Z,96620.22
2023-05-23T03:04:52.148Z,96621.84
2023-05-23T03:07:28.155Z,96616.09
2023-05-23T03:09:58.633Z,96612.19
2023-05-23T03:12:26.828Z,96615.25
2023-05-23T03:14:55.040Z,96616.47
2023-05-23T03:17:23.271Z,96620.84
2023-05-23T03:19:51.447Z,96611.13
2023-05-23T03:22:20.553Z,96608.84
2023-05-23T03:24:48.819Z,96604.09
2023-05-23T03:27:18.351Z,96614.38
2023-05-23T03:29:46.613Z,96610.53
2023-05-23T03:32:14.953Z,96605.78
2023-05-23T03:34:43.191Z,96609.56
2023-05-23T03:37:12.862Z,96602.75
2023-05-23T03:39:41.128Z,96603.63
2023-05-23T03:42:09.584Z,96606.34
2023-05-23T03:44:39.579Z,96604.47
2023-05-23T03:47:08.867Z,96604.78
2023-05-23T03:49:39.748Z,96613.91
2023-05-23T03:52:08.413Z,96609.25
2023-05-23T03:54:36.742Z,96614.69
2023-05-23T03:57:05.404Z,96619.22
2023-05-23T03:59:35.206Z,96619.22
2023-05-23T04:02:06.486Z,96615.03
2023-05-23T04:04:35.351Z,96624.91
2023-05-23T04:07:05.800Z,96623.34
2023-05-23T04:09:34.249Z,96623.91
2023-05-23T04:12:03.176Z,96628.34
2023-05-23T04:14:33.799Z,96629.50
2023-05-23T04:17:02.769Z,96630.19
2023-05-23T04:19:32.681Z,96632.16
2023-05-23T04:22:02.055Z,96632.41
2023-05-23T04:24:30.488Z,96633.06
2023-05-23T04:26:59.416Z,96639.78
2023-05-23T04:29:27.984Z,96639.66
2023-05-23T04:31:56.610Z,96640.06
2023-05-23T04:34:24.752Z,96640.06
2023-05-23T04:36:55.944Z,96647.16
2023-05-23T04:39:24.078Z,96645.34
2023-05-23T04:42:13.885Z,96653.13
2023-05-23T04:45:36.637Z,96651.44
2023-05-23T04:48:13.160Z,96651.63
2023-05-23T04:50:47.514Z,96654.16
2023-05-23T04:53:17.020Z,96659.59
2023-05-23T04:55:46.162Z,96662.31
2023-05-23T04:58:17.911Z,96659.03
2023-05-23T05:00:46.297Z,96657.66
2023-05-23T05:03:16.637Z,96655.47
2023-05-23T05:05:46.954Z,96653.00
2023-05-23T05:08:19.897Z,96658.53
2023-05-23T05:10:48.353Z,96662.28
2023-05-23T05:13:17.477Z,96659.03
2023-05-23T05:15:49.896Z,96664.53
2023-05-23T05:18:18.715Z,96661.59
2023-05-23T05:20:47.310Z,96676.97
2023-05-23T05:23:17.997Z,96685.22
2023-05-23T05:25:46.235Z,96684.41
2023-05-23T05:28:14.642Z,96679.91
2023-05-23T05:30:46.495Z,96687.25
2023-05-23T05:33:15.594Z,96690.50
2023-05-23T05:35:44.249Z,96679.31
2023-05-23T05:38:12.489Z,96684.59
2023-05-23T05:40:42.631Z,96682.88
2023-05-23T05:43:11.495Z,96692.53
2023-05-23T05:45:40.057Z,96687.28
2023-05-23T05:48:08.385Z,96688.63
2023-05-23T05:50:37.050Z,96688.28
2023-05-23T05:53:05.166Z,96692.91
2023-05-23T05:55:33.269Z,96687.88
2023-05-23T05:58:02.767Z,96697.63
2023-05-23T06:00:42.470Z,96694.00
2023-05-23T06:03:10.942Z,96699.88
2023-05-23T06:05:46.238Z,96703.47
2023-05-23T06:08:14.376Z,96698.69
2023-05-23T06:10:42.766Z,96702.22
2023-05-23T06:13:12.601Z,96704.56
2023-05-23T06:15:43.310Z,96699.28
2023-05-23T06:18:11.823Z,96698.81
2023-05-23T06:20:40.543Z,96701.94
2023-05-23T06:23:15.142Z,96705.97
2023-05-23T06:25:43.256Z,96702.06
2023-05-23T06:28:12.721Z,96710.13
2023-05-23T06:30:41.259Z,96703.81
2023-05-23T06:33:09.828Z,96714.78
2023-05-23T06:35:37.930Z,96716.44
2023-05-23T06:38:05.973Z,96724.97
2023-05-23T06:40:34.595Z,96719.06
2023-05-23T06:43:02.652Z,96718.19
2023-05-23T06:45:55.226Z,96719.59
2023-05-23T06:48:23.390Z,96724.53
2023-05-23T06:50:52.378Z,96721.47
2023-05-23T06:53:21.261Z,96720.84
2023-05-23T06:55:50.574Z,96734.34
2023-05-23T06:58:25.054Z,96737.56
2023-05-23T07:00:54.813Z,96735.34
2023-05-23T07:03:33.293Z,96733.78
2023-05-23T07:06:05.879Z,96734.63
2023-05-23T07:08:34.689Z,96736.22
2023-05-23T07:11:03.160Z,96742.00
2023-05-23T07:13:51.528Z,96735.13
2023-05-23T07:16:28.760Z,96734.38
2023-05-23T07:19:03.073Z,96736.97
2023-05-23T07:21:32.044Z,96734.75
2023-05-23T07:24:00.192Z,96732.97
2023-05-23T07:26:29.433Z,96734.28
2023-05-23T07:28:58.062Z,96735.22
2023-05-23T07:31:26.162Z,96734.78
2023-05-23T07:33:59.555Z,96726.66
2023-05-23T07:36:35.741Z,96735.69
2023-05-23T07:39:08.231Z,96725.06
2023-05-23T07:41:36.507Z,96728.41
2023-05-23T07:44:04.693Z,96730.50
2023-05-23T07:46:33.238Z,96728.31
2023-05-23T07:49:02.689Z,96725.41
2023-05-23T07:51:30.970Z,96732.75
2023-05-23T07:53:59.253Z,96736.31
2023-05-23T07:56:27.652Z,96735.00
2023-05-23T07:58:56.440Z,96739.16
2023-05-23T08:01:25.597Z,96741.69
2023-05-23T08:04:01.966Z,96742.28
2023-05-23T08:06:39.890Z,96737.97
2023-05-23T08:09:30.018Z,96731.00
2023-05-23T08:12:17.796Z,96738.91
2023-05-23T08:14:51.506Z,96731.19
2023-05-23T08:17:43.574Z,96729.31
2023-05-23T08:20:14.756Z,96733.41
2023-05-23T08:22:42.872Z,96727.53
2023-05-23T08:25:11.519Z,96730.66
2023-05-23T08:27:41.515Z,96740.31
2023-05-23T08:30:28.330Z,96736.44
2023-05-23T08:32:58.008Z,96746.97
2023-05-23T08:35:29.296Z,96740.03
2023-05-23T08:37:58.274Z,96750.91
2023-05-23T08:40:29.259Z,96742.94
2023-05-23T08:43:04.891Z,96747.31
2023-05-23T08:45:34.910Z,96750.53
2023-05-23T08:48:04.858Z,96754.59
2023-05-23T08:50:38.893Z,96758.59
2023-05-23T08:53:08.656Z,96757.75
2023-05-23T08:55:38.991Z,96759.56
2023-05-23T08:58:07.593Z,96761.06
2023-05-23T09:00:47.556Z,96767.44
2023-05-23T09:03:15.659Z,96761.31
2023-05-23T09:05:58.852Z,96767.09
2023-05-23T09:08:27.186Z,96772.16
2023-05-23T09:10:59.299Z,96769.13
2023-05-23T09:13:28.579Z,96779.25
2023-05-23T09:15:59.944Z,96781.31
2023-05-23T09:18:34.793Z,96781.38
2023-05-23T09:21:05.648Z,96789.34
2023-05-23T09:23:36.155Z,96781.31
2023-05-23T09:26:05.153Z,96779.50
2023-05-23T09:28:34.069Z,96775.50
2023-05-23T09:31:02.489Z,96775.44
2023-05-23T09:33:37.669Z,96775.00
2023-05-23T09:36:08.522Z,96773.38
2023-05-23T09:38:39.531Z,96788.47
2023-05-23T09:41:08.272Z,96787.34
2023-05-23T09:43:36.412Z,96784.97
2023-05-23T09:46:09.011Z,96788.97
2023-05-23T09:48:37.173Z,96789.75
2023-05-23T09:51:10.687Z,96788.63
2023-05-23T09:53:38.893Z,96786.44
2023-05-23T09:56:07.850Z,96787.69
2023-05-23T09:58:36.653Z,96792.75
2023-05-23T10:01:04.950Z,96782.47
2023-05-23T10:03:35.723Z,96782.28
2023-05-23T10:06:09.630Z,96767.63
2023-05-23T10:08:40.252Z,96773.28
2023-05-23T10:11:47.592Z,96777.69
2023-05-23T10:14:16.721Z,96777.13
2023-05-23T10:16:51.637Z,96777.81
2023-05-23T10:19:24.612Z,96770.03
2023-05-23T10:21:59.544Z,96773.94
2023-05-23T10:24:27.904Z,96764.00
2023-05-23T10:26:56.358Z,96777.81
2023-05-23T10:29:24.663Z,96777.81
2023-05-23T10:31:53.676Z,96780.13
2023-05-23T10:34:27.355Z,96791.78
2023-05-23T10:37:01.986Z,96783.16
2023-05-23T10:39:37.632Z,96778.53
2023-05-23T10:42:11.649Z,96774.63
2023-05-23T10:44:39.761Z,96770.69
2023-05-23T10:47:08.130Z,96765.41
2023-05-23T10:49:40.853Z,96757.50
2023-05-23T10:52:11.906Z,96757.38
2023-05-23T10:54:44.667Z,96759.72
2023-05-23T10:57:14.330Z,96753.88
2023-05-23T10:59:42.614Z,96759.44
2023-05-23T11:02:15.686Z,96754.41
2023-05-23T11:04:44.098Z,96755.50
2023-05-23T11:07:31.895Z,96746.06
2023-05-23T11:10:10.293Z,96748.06
2023-05-23T11:12:39.283Z,96746.91
2023-05-23T11:15:22.660Z,96744.19
2023-05-23T11:17:53.092Z,96742.66
2023-05-23T11:20:23.568Z,96744.16
2023-05-23T11:23:00.251Z,96742.00
2023-05-23T11:25:42.307Z,96744.53
2023-05-23T11:28:10.686Z,96737.50
2023-05-23T11:30:39.338Z,96748.88
2023-05-23T11:33:09.519Z,96749.25
2023-05-23T11:35:37.652Z,96754.41
2023-05-23T11:38:07.356Z,96752.84
2023-05-23T11:40:36.681Z,96756.25
2023-05-23T11:43:06.031Z,96754.81
2023-05-23T11:45:35.219Z,96752.44
2023-05-23T11:48:10.043Z,96744.56
2023-05-23T11:50:46.042Z,96744.28
2023-05-23T11:53:17.555Z,96738.88
2023-05-23T11:55:53.336Z,96749.84
2023-05-23T11:58:23.963Z,96747.88
2023-05-23T12:00:55.058Z,96745.50
2023-05-23T12:03:23.674Z,96747.06
2023-05-23T12:05:52.157Z,96748.19
2023-05-23T12:08:21.803Z,96742.75
2023-05-23T12:10:51.088Z,96750.91
2023-05-23T12:13:19.327Z,96744.25
2023-05-23T12:15:47.860Z,96747.69
2023-05-23T12:18:17.851Z,96754.78
2023-05-23T12:20:45.933Z,96749.06
2023-05-23T12:23:21.383Z,96749.94
2023-05-23T12:25:51.942Z,96750.06
2023-05-23T12:28:20.513Z,96750.19
2023-05-23T12:30:48.730Z,96752.69
2023-05-23T12:33:16.898Z,96751.94
2023-05-23T12:35:45.729Z,96756.72
2023-05-23T12:38:17.307Z,96754.88
2023-05-23T12:40:46.745Z,96758.88
2023-05-23T12:43:16.788Z,96753.41
2023-05-23T12:45:44.825Z,96763.84
2023-05-23T12:48:12.912Z,96754.16
2023-05-23T12:50:41.326Z,96758.19
2023-05-23T12:53:09.646Z,96761.34
2023-05-23T12:55:37.894Z,96761.00
2023-05-23T12:58:07.368Z,96756.75
2023-05-23T13:00:35.443Z,96741.06
2023-05-23T13:03:03.533Z,96752.06
2023-05-23T13:05:31.621Z,96756.00
2023-05-23T13:08:00.262Z,96748.03
2023-05-23T13:10:30.924Z,96753.06
2023-05-23T13:12:59.985Z,96760.59
2023-05-23T13:15:29.609Z,96758.75
2023-05-23T13:17:58.066Z,96754.75
2023-05-23T13:20:30.100Z,96754.84
2023-05-23T13:22:59.532Z,96751.09
2023-05-23T13:25:28.505Z,96742.91
2023-05-23T13:27:57.370Z,96751.16
2023-05-23T13:30:25.775Z,96755.59
2023-05-23T13:32:55.577Z,96747.72
2023-05-23T13:35:23.885Z,96755.59
2023-05-23T13:37:53.806Z,96747.06
2023-05-23T13:40:22.759Z,96751.09
2023-05-23T13:42:52.152Z,96741.63
2023-05-23T13:45:22.468Z,96730.78
2023-05-23T13:47:50.838Z,96736.03
2023-05-23T13:50:20.702Z,96731.22
2023-05-23T13:52:49.610Z,96737.66
2023-05-23T13:55:18.671Z,96741.56
2023-05-23T13:57:47.204Z,96738.00
2023-05-23T14:00:16.147Z,96742.75
2023-05-23T14:02:44.483Z,96719.81
2023-05-23T14:05:12.688Z,96733.94
2023-05-23T14:07:47.090Z,96731.69
2023-05-23T14:10:15.463Z,96728.59
2023-05-23T14:12:43.652Z,96728.59
2023-05-23T14:15:13.025Z,96720.31
2023-05-23T14:17:41.284Z,96721.84
2023-05-23T14:20:10.019Z,96730.56
2023-05-23T14:22:38.199Z,96724.28
2023-05-23T14:25:08.526Z,96730.94
2023-05-23T14:27:36.875Z,96723.06
2023-05-23T14:30:06.003Z,96737.22
2023-05-23T14:32:38.854Z,96731.69
2023-05-23T14:35:07.886Z,96736.31
2023-05-23T14:37:36.302Z,96736.28
2023-05-23T14:40:04.692Z,96729.78
2023-05-23T14:42:34.324Z,96734.56
2023-05-23T14:45:02.890Z,96735.88
2023-05-23T14:47:32.106Z,96741.81
2023-05-23T14:50:00.374Z,96747.16
2023-05-23T14:52:28.652Z,96754.31
2023-05-23T14:54:56.834Z,96752.59
2023-05-23T14:57:25.331Z,96752.50
2023-05-23T14:59:54.727Z,96752.09
2023-05-23T15:02:22.920Z,96752.13
2023-05-23T15:04:51.151Z,96757.94
2023-05-23T15:07:19.453Z,96758.81
2023-05-23T15:09:48.388Z,96760.75
2023-05-23T15:12:16.672Z,96771.38
2023-05-23T15:14:45.029Z,96784.63
2023-05-23T15:17:19.898Z,96776.50
2023-05-23T15:19:48.145Z,96786.53
2023-05-23T15:22:35.140Z,96783.91
2023-05-23T15:25:04.973Z,96785.88
2023-05-23T15:27:33.144Z,96796.41
2023-05-23T15:30:01.447Z,96792.16
2023-05-23T15:32:31.303Z,96796.13
2023-05-23T15:34:59.616Z,96793.69
2023-05-23T15:37:27.810Z,96799.00
2023-05-23T15:39:56.093Z,96806.16
2023-05-23T15:42:24.269Z,96799.81
2023-05-23T15:44:52.479Z,96809.84
2023-05-23T15:47:21.369Z,96810.50
2023-05-23T15:49:50.879Z,96813.75
2023-05-23T15:52:19.002Z,96815.81
2023-05-23T15:54:47.135Z,96821.06
2023-05-23T15:57:15.300Z,96823.44
2023-05-23T15:59:43.809Z,96825.66
2023-05-23T16:02:11.996Z,96838.69
2023-05-23T16:04:40.264Z,96825.06
2023-05-23T16:07:09.798Z,96832.44
2023-05-23T16:09:37.995Z,96830.66
2023-05-23T16:12:06.836Z,96836.16
2023-05-23T16:14:34.976Z,96834.66
2023-05-23T16:17:06.043Z,96833.94
2023-05-23T16:19:37.158Z,96829.75
2023-05-23T16:22:06.052Z,96822.94
2023-05-23T16:24:35.611Z,96827.38
2023-05-23T16:27:03.982Z,96835.78
2023-05-23T16:29:32.227Z,96833.72
2023-05-23T16:32:00.409Z,96842.88
2023-05-23T16:34:28.708Z,96831.13
2023-05-23T16:36:56.829Z,96840.69
2023-05-23T16:39:25.068Z,96835.91
2023-05-23T16:41:54.633Z,96827.81
2023-05-23T16:44:22.807Z,96823.03
2023-05-23T16:46:51.603Z,96819.25
2023-05-23T16:49:19.852Z,96823.63
2023-05-23T16:51:48.868Z,96823.69
2023-05-23T16:54:17.246Z,96826.81
2023-05-23T16:56:45.535Z,96834.50
2023-05-23T16:59:16.198Z,96831.59
2023-05-23T17:01:44.427Z,96827.03
2023-05-23T17:04:12.731Z,96826.63
2023-05-23T17:06:41.107Z,96842.28
2023-05-23T17:09:09.372Z,96835.22
2023-05-23T17:11:37.638Z,96838.19
2023-05-23T17:14:06.018Z,96838.13
2023-05-23T17:16:35.720Z,96836.41
2023-05-23T17:19:04.367Z,96838.53
2023-05-23T17:21:32.923Z,96838.97
2023-05-23T17:24:01.195Z,96841.50
2023-05-23T17:26:29.453Z,96845.38
2023-05-23T17:28:57.629Z,96844.66
2023-05-23T17:31:26.580Z,96847.69
2023-05-23T17:33:57.168Z,96845.31
2023-05-23T17:36:25.550Z,96858.75
2023-05-23T17:38:54.307Z,96858.66
2023-05-23T17:41:23.140Z,96855.72
2023-05-23T17:43:51.500Z,96866.28
2023-05-23T17:46:19.765Z,96869.59
2023-05-23T17:48:48.390Z,96869.84
2023-05-23T17:51:18.024Z,96865.28
2023-05-23T17:53:46.298Z,96865.97
2023-05-23T17:56:14.513Z,96865.56
2023-05-23T17:58:44.307Z,96870.88
2023-05-23T18:01:13.631Z,96871.28
2023-05-23T18:03:42.094Z,96877.28
2023-05-23T18:06:10.603Z,96870.09
2023-05-23T18:08:41.474Z,96870.88
2023-05-23T18:11:11.066Z,96879.63
2023-05-23T18:13:39.489Z,96877.91
2023-05-23T18:16:08.015Z,96892.50
2023-05-23T18:18:36.218Z,96872.00
2023-05-23T18:21:04.632Z,96874.47
2023-05-23T18:23:33.845Z,96881.59
2023-05-23T18:26:03.657Z,96876.81
2023-05-23T18:28:31.877Z,96879.25
2023-05-23T18:31:00.132Z,96882.94
2023-05-23T18:33:28.745Z,96886.44
2023-05-23T18:35:57.027Z,96886.53
2023-05-23T18:38:25.607Z,96892.88
2023-05-23T18:40:53.830Z,96894.00
2023-05-23T18:43:23.397Z,96889.72
2023-05-23T18:45:51.728Z,96896.28
2023-05-23T18:48:19.990Z,96902.81
2023-05-23T18:50:48.360Z,96907.28
2023-05-23T18:53:16.646Z,96907.78
2023-05-23T18:55:44.983Z,96904.69
2023-05-23T18:58:14.051Z,96909.38
2023-05-23T19:00:45.305Z,96910.06
2023-05-23T19:03:14.618Z,96911.94
2023-05-23T19:05:42.979Z,96920.13
2023-05-23T19:08:11.208Z,96917.25
2023-05-23T19:10:39.494Z,96926.13
2023-05-23T19:13:07.750Z,96929.13
2023-05-23T19:15:36.094Z,96939.63
2023-05-23T19:18:06.124Z,96940.78
2023-05-23T19:20:34.341Z,96954.75
2023-05-23T19:23:02.571Z,96961.28
2023-05-23T19:25:31.193Z,96960.78
2023-05-23T19:27:59.430Z,96963.00
2023-05-23T19:30:27.668Z,96964.06
2023-05-23T19:32:56.207Z,96968.63
2023-05-23T19:35:26.020Z,96970.94
2023-05-23T19:37:54.389Z,96972.50
2023-05-23T19:40:22.640Z,96967.75
2023-05-23T19:42:51.170Z,96975.31
2023-05-23T19:45:19.665Z,96976.72
2023-05-23T19:47:47.868Z,96981.97
2023-05-23T19:50:16.143Z,96990.41
2023-05-23T19:52:45.769Z,96987.16
2023-05-23T19:55:14.457Z,96988.94
2023-05-23T19:57:42.609Z,96987.97
2023-05-23T20:00:14.767Z,96991.13
2023-05-23T20:02:44.552Z,96990.94
2023-05-23T20:05:12.828Z,96993.03
2023-05-23T20:07:41.934Z,96995.38
2023-05-23T20:10:12.387Z,96996.28
2023-05-23T20:12:40.588Z,96994.72
2023-05-23T20:15:09.781Z,97012.19
2023-05-23T20:17:37.974Z,97010.28
2023-05-23T20:20:07.407Z,97014.72
2023-05-23T20:22:35.798Z,97009.16
2023-05-23T20:25:05.728Z,97011.94
2023-05-23T20:27:35.534Z,97013.16
2023-05-23T20:30:04.087Z,97023.13
2023-05-23T20:32:32.533Z,97015.81
2023-05-23T20:35:00.986Z,97022.03
2023-05-23T20:37:29.293Z,97023.13
2023-05-23T20:39:58.052Z,97029.06
2023-05-23T20:42:27.066Z,97029.84
2023-05-23T20:44:58.003Z,97031.59
2023-05-23T20:47:26.571Z,97028.50
2023-05-23T20:49:56.071Z,97028.00
2023-05-23T20:52:24.576Z,97018.94
2023-05-23T20:54:54.517Z,97034.47
2023-05-23T20:57:23.072Z,97032.34
2023-05-23T20:59:51.308Z,97024.06
2023-05-23T21:02:20.903Z,97027.34
2023-05-23T21:04:49.180Z,97032.16
2023-05-23T21:07:17.400Z,97027.09
2023-05-23T21:09:46.029Z,97032.88
2023-05-23T21:12:14.249Z,97039.41
2023-05-23T21:14:42.341Z,97037.06
2023-05-23T21:17:10.470Z,97040.41
2023-05-23T21:19:40.035Z,97029.66
2023-05-23T21:22:08.274Z,97034.47
2023-05-23T21:24:36.425Z,97036.25
2023-05-23T21:27:05.360Z,97036.06
2023-05-23T21:29:33.425Z,97036.06
2023-05-23T21:32:01.660Z,97041.69
2023-05-23T21:34:29.925Z,97041.91
2023-05-23T21:36:59.403Z,97042.16
2023-05-23T21:39:36.091Z,97038.34
2023-05-23T21:42:11.395Z,97044.81
2023-05-23T21:44:40.892Z,97046.25
2023-05-23T21:47:09.124Z,97055.09
2023-05-23T21:49:37.981Z,97048.50
2023-05-23T21:52:07.494Z,97058.28
2023-05-23T21:54:35.767Z,97056.69
2023-05-23T21:57:03.916Z,97058.28
2023-05-23T21:59:32.080Z,97067.81
2023-05-23T22:02:00.970Z,97067.34
2023-05-23T22:04:29.102Z,97075.97
2023-05-23T22:06:57.134Z,97082.84
2023-05-23T22:09:26.656Z,97079.50
2023-05-23T22:11:55.921Z,97083.19
2023-05-23T22:14:23.999Z,97079.53
2023-05-23T22:16:52.284Z,97084.94
2023-05-23T22:19:21.134Z,97090.84
2023-05-23T22:21:49.264Z,97085.09
2023-05-23T22:24:17.411Z,97091.91
2023-05-23T22:26:46.857Z,97094.28
2023-05-23T22:29:14.906Z,97092.56
2023-05-23T22:31:43.295Z,97094.00
2023-05-23T22:34:11.568Z,97087.53
2023-05-23T22:36:39.622Z,97084.34
2023-05-23T22:39:08.058Z,97085.00
2023-05-23T22:41:36.653Z,97092.69
2023-05-23T22:44:06.216Z,97089.19
2023-05-23T22:46:34.329Z,97084.09
2023-05-23T22:49:03.694Z,97083.16
2023-05-23T22:51:34.180Z,97089.03
2023-05-23T22:54:02.481Z,97088.50
2023-05-23T22:56:30.522Z,97083.56
2023-05-23T22:58:58.593Z,97085.94
2023-05-23T23:01:28.081Z,97081.38
2023-05-23T23:03:56.178Z,97081.09
2023-05-23T23:06:24.206Z,97079.69
2023-05-23T23:08:52.838Z,97074.66
2023-05-23T23:11:21.001Z,97073.38
2023-05-23T23:13:49.024Z,97068.13
2023-05-23T23:16:19.335Z,97066.75
2023-05-23T23:18:50.012Z,97056.06
2023-05-23T23:21:18.093Z,97054.22
2023-05-23T23:23:46.243Z,97053.34
2023-05-23T23:26:14.319Z,97058.44
2023-05-23T23:28:42.367Z,97058.91
2023-05-23T23:31:10.545Z,97050.22
2023-05-23T23:33:38.805Z,97048.59
2023-05-23T23:36:08.790Z,97058.81
2023-05-23T23:38:38.078Z,97061.34
2023-05-23T23:41:06.276Z,97064.56
2023-05-23T23:43:34.346Z,97071.06
2023-05-23T23:46:02.437Z,97065.81
2023-05-23T23:48:30.569Z,97059.59
2023-05-23T23:50:58.628Z,97066.78
2023-05-23T23:53:28.048Z,97071.84
2023-05-23T23:55:56.094Z,97073.28
2023-05-23T23:58:24.121Z,97063.59
